Time;durP1;ratioP1;P1;durP2;ratioP2;P2;SDS_P1;SDS_P2;PMS_P1;PMS_P2;Temp;Humidity;BMP_temperature;BMP_pressure;BME280_temperature;BME280_humidity;BME280_pressure;Samples;Min_cycle;Max_cycle;Signal;HPM_P1;HPM_P2
2022/09/13 00:00:19;;;;;;;0.52;0.52;;;16.00;99.90;;;;;;5035419;28;20079;-74
2022/09/13 00:02:44;;;;;;;2.17;1.30;;;16.30;99.90;;;;;;5036067;28;20492;-74
2022/09/13 00:05:10;;;;;;;1.85;0.50;;;16.10;99.90;;;;;;5035495;28;20041;-74
2022/09/13 00:07:35;;;;;;;1.55;0.25;;;16.10;99.90;;;;;;5035250;28;20048;-74
2022/09/13 00:10:01;;;;;;;4.50;1.60;;;16.10;99.90;;;;;;5035264;28;20053;-74
2022/09/13 00:12:27;;;;;;;1.45;0.82;;;16.10;99.90;;;;;;5035617;28;20046;-75
2022/09/13 00:14:52;;;;;;;1.63;1.15;;;16.10;99.90;;;;;;5034990;28;20049;-74
2022/09/13 00:17:18;;;;;;;3.95;1.73;;;16.10;99.90;;;;;;5035404;28;20045;-74
2022/09/13 00:19:44;;;;;;;0.65;0.65;;;16.20;99.90;;;;;;5035494;28;20049;-75
2022/09/13 00:22:09;;;;;;;1.88;1.27;;;16.10;99.90;;;;;;5035257;28;20506;-74
2022/09/13 00:24:36;;;;;;;3.03;1.13;;;16.10;99.90;;;;;;5035336;28;20115;-75
2022/09/13 00:27:01;;;;;;;4.20;1.17;;;16.10;99.90;;;;;;5035152;28;20045;-75
2022/09/13 00:29:27;;;;;;;7.15;1.95;;;16.10;99.90;;;;;;5033975;28;20052;-74
2022/09/13 00:31:53;;;;;;;1.50;1.05;;;16.10;99.90;;;;;;5034151;28;20038;-75
2022/09/13 00:34:18;;;;;;;1.92;0.88;;;16.20;99.90;;;;;;5033944;28;20488;-74
2022/09/13 00:36:44;;;;;;;2.08;1.45;;;16.10;99.90;;;;;;5034186;28;20046;-74
2022/09/13 00:39:10;;;;;;;2.13;1.10;;;16.20;99.90;;;;;;5034259;28;20042;-75
2022/09/13 00:41:37;;;;;;;0.57;0.57;;;16.20;99.90;;;;;;5033985;28;20046;-75
2022/09/13 00:44:03;;;;;;;4.80;1.35;;;16.20;99.90;;;;;;5033964;28;20571;-76
2022/09/13 00:46:38;;;;;;;3.45;1.67;;;16.20;99.90;;;;;;5033639;28;20049;-76
2022/09/13 00:49:11;;;;;;;1.70;1.53;;;16.20;99.90;;;;;;5033796;28;20037;-75
2022/09/13 00:51:38;;;;;;;0.93;0.90;;;16.20;99.90;;;;;;5034030;28;20399;-74
2022/09/13 00:54:04;;;;;;;2.55;2.03;;;16.20;99.90;;;;;;5034314;28;20407;-75
2022/09/13 00:56:37;;;;;;;1.70;1.45;;;16.30;99.90;;;;;;5033624;28;20045;-75
2022/09/13 00:59:12;;;;;;;2.30;1.77;;;16.20;99.90;;;;;;5034128;28;20099;-75
2022/09/13 01:01:48;;;;;;;1.15;1.05;;;16.20;99.90;;;;;;5034919;28;20053;-74
2022/09/13 01:04:14;;;;;;;;;;;16.20;99.90;;;;;;5034987;28;20053;-75
2022/09/13 01:06:41;;;;;;;3.13;1.58;;;16.20;99.90;;;;;;5034212;28;19967;-75
2022/09/13 01:09:09;;;;;;;2.47;1.35;;;16.30;99.90;;;;;;5034638;28;20404;-75
2022/09/13 01:11:54;;;;;;;1.92;1.52;;;16.30;99.90;;;;;;5033889;28;20052;-74
2022/09/13 01:14:22;;;;;;;1.35;1.25;;;16.30;99.90;;;;;;5017789;28;20033;-75
2022/09/13 01:16:49;;;;;;;1.77;1.48;;;16.30;99.90;;;;;;5034205;28;20060;-75
2022/09/13 01:19:15;;;;;;;0.60;0.43;;;16.30;99.90;;;;;;5034271;28;20068;-75
2022/09/13 01:22:11;;;;;;;1.35;1.10;;;16.30;99.90;;;;;;5033684;28;20403;-74
2022/09/13 01:24:45;;;;;;;0.50;0.40;;;16.30;99.90;;;;;;5033164;28;20041;-75
2022/09/13 01:27:26;;;;;;;1.75;0.73;;;16.20;99.90;;;;;;5033591;28;20049;-75
2022/09/13 01:30:08;;;;;;;0.95;0.85;;;16.20;99.90;;;;;;5034232;28;20128;-75
2022/09/13 01:33:11;;;;;;;0.75;0.68;;;16.20;99.90;;;;;;5033607;28;20399;-75
2022/09/13 01:36:03;;;;;;;1.42;1.20;;;16.20;99.90;;;;;;5033599;28;20051;-74
2022/09/13 01:38:47;;;;;;;0.52;0.50;;;16.20;99.90;;;;;;5033501;28;20077;-75
2022/09/13 01:41:42;;;;;;;1.85;0.90;;;16.10;99.90;;;;;;5035434;28;20053;-74
2022/09/13 01:44:38;;;;;;;0.70;0.68;;;16.10;99.90;;;;;;5038495;28;20042;-75
2022/09/13 01:47:21;;;;;;;0.52;0.40;;;16.10;99.90;;;;;;5018809;28;20515;-75
2022/09/13 01:49:58;;;;;;;1.98;0.73;;;16.20;99.90;;;;;;5036258;28;20076;-75
2022/09/13 01:52:53;;;;;;;1.65;1.23;;;16.20;99.90;;;;;;5036802;28;20500;-75
2022/09/13 01:55:53;;;;;;;1.58;0.55;;;16.20;99.90;;;;;;5034252;28;20057;-75
2022/09/13 01:58:27;;;;;;;1.00;0.90;;;16.10;99.90;;;;;;5037722;28;20577;-74
2022/09/13 02:01:00;;;;;;;3.47;1.92;;;16.10;99.90;;;;;;5036956;28;20053;-75
2022/09/13 02:03:32;;;;;;;1.88;1.15;;;16.20;99.90;;;;;;5037424;28;20096;-75
2022/09/13 02:06:25;;;;;;;0.90;0.80;;;16.10;99.90;;;;;;5037820;28;20052;-75
2022/09/13 02:08:59;;;;;;;1.27;0.85;;;16.10;99.90;;;;;;5028754;28;20050;-75
2022/09/13 02:11:25;;;;;;;3.47;1.20;;;16.10;99.90;;;;;;5037494;28;20519;-75
2022/09/13 02:14:06;;;;;;;1.83;1.30;;;16.10;99.90;;;;;;5037088;28;20044;-75
2022/09/13 02:16:42;;;;;;;0.70;0.60;;;16.10;99.90;;;;;;5037789;28;20041;-75
2022/09/13 02:19:13;;;;;;;0.75;0.75;;;16.00;99.90;;;;;;5037396;28;20041;-75
2022/09/13 02:21:43;;;;;;;3.83;0.80;;;16.10;99.90;;;;;;5037345;28;20404;-75
2022/09/13 02:24:16;;;;;;;0.88;0.63;;;16.10;99.90;;;;;;5037033;28;20072;-75
2022/09/13 02:26:45;;;;;;;0.55;0.55;;;16.10;99.90;;;;;;5037025;28;20042;-74
2022/09/13 02:29:20;;;;;;;1.42;1.33;;;16.10;99.90;;;;;;5037388;28;20037;-75
2022/09/13 02:32:02;;;;;;;0.43;0.30;;;16.00;99.90;;;;;;5036937;28;20045;-75
2022/09/13 02:34:37;;;;;;;3.22;1.65;;;16.00;99.90;;;;;;5036760;28;20041;-75
2022/09/13 02:37:05;;;;;;;2.08;1.13;;;16.00;99.90;;;;;;5036941;28;20045;-75
2022/09/13 02:39:33;;;;;;;1.13;0.88;;;16.00;99.90;;;;;;5036815;28;20072;-75
2022/09/13 02:42:15;;;;;;;3.78;1.27;;;15.90;99.90;;;;;;5037207;28;20112;-75
2022/09/13 02:44:45;;;;;;;0.88;0.38;;;15.90;99.90;;;;;;5036463;28;20073;-75
2022/09/13 02:47:31;;;;;;;2.25;1.45;;;15.90;99.90;;;;;;5036555;28;20443;-75
2022/09/13 02:50:01;;;;;;;1.75;0.95;;;15.90;99.90;;;;;;5037110;28;20454;-75
2022/09/13 02:52:32;;;;;;;1.08;1.00;;;16.00;99.90;;;;;;5036029;28;20038;-75
2022/09/13 02:55:08;;;;;;;1.13;0.85;;;15.90;99.90;;;;;;5036421;28;20057;-75
2022/09/13 02:57:51;;;;;;;1.35;1.02;;;15.90;99.90;;;;;;5036197;28;20068;-75
2022/09/13 03:00:16;;;;;;;1.20;1.10;;;15.90;99.90;;;;;;5036232;28;20073;-75
2022/09/13 03:02:44;;;;;;;3.22;1.30;;;16.30;99.90;;;;;;5036684;28;20522;-75
2022/09/13 03:05:10;;;;;;;2.15;1.10;;;15.90;99.90;;;;;;5036452;28;20124;-75
2022/09/13 03:07:35;;;;;;;1.73;0.90;;;15.90;99.90;;;;;;5018748;28;20483;-75
2022/09/13 03:10:12;;;;;;;1.00;0.60;;;16.00;99.90;;;;;;5036180;28;20389;-75
2022/09/13 03:13:04;;;;;;;0.88;0.82;;;16.00;99.90;;;;;;5036329;28;20563;-75
2022/09/13 03:15:29;;;;;;;2.03;1.42;;;16.00;99.90;;;;;;5036470;28;20115;-75
2022/09/13 03:18:00;;;;;;;15.80;1.30;;;16.10;99.90;;;;;;5035976;28;20041;-75
2022/09/13 03:20:39;;;;;;;0.40;0.40;;;16.10;99.90;;;;;;5036425;28;20492;-74
2022/09/13 03:23:33;;;;;;;2.75;1.50;;;16.10;99.90;;;;;;5036608;28;20038;-75
2022/09/13 03:26:26;;;;;;;0.60;0.55;;;16.20;99.90;;;;;;5036055;28;20380;-75
2022/09/13 03:29:01;;;;;;;0.50;0.50;;;16.20;99.90;;;;;;5036106;28;20041;-75
2022/09/13 03:31:49;;;;;;;0.82;0.80;;;16.30;99.90;;;;;;5036332;28;20053;-75
2022/09/13 03:34:29;;;;;;;2.45;1.25;;;16.30;99.90;;;;;;5035552;28;20064;-75
2022/09/13 03:37:02;;;;;;;1.10;0.85;;;16.30;99.90;;;;;;5035674;28;20045;-75
2022/09/13 03:39:59;;;;;;;0.63;0.55;;;16.40;99.90;;;;;;5036630;28;20049;-75
2022/09/13 03:42:35;;;;;;;1.25;0.85;;;16.40;99.90;;;;;;5036787;28;20052;-75
2022/09/13 03:45:02;;;;;;;;;;;16.40;99.90;;;;;;5036315;28;20134;-75
2022/09/13 03:47:32;;;;;;;2.38;1.77;;;16.40;99.90;;;;;;5035854;28;20012;-75
2022/09/13 03:49:59;;;;;;;1.20;1.02;;;16.40;99.90;;;;;;5035882;28;20049;-75
2022/09/13 03:52:25;;;;;;;1.65;1.55;;;16.50;99.90;;;;;;5036294;28;20518;-75
2022/09/13 03:54:53;;;;;;;5.47;1.80;;;16.50;99.90;;;;;;5036560;28;20052;-75
2022/09/13 03:57:21;;;;;;;1.92;1.50;;;16.50;99.90;;;;;;5035989;28;20357;-75
2022/09/13 03:59:46;;;;;;;2.15;1.45;;;16.50;99.90;;;;;;5036364;28;20103;-75
2022/09/13 04:02:13;;;;;;;1.17;1.08;;;16.60;99.90;;;;;;5036224;28;20058;-76
2022/09/13 04:04:40;;;;;;;0.65;0.57;;;16.60;99.90;;;;;;5034507;28;20072;-76
2022/09/13 04:07:07;;;;;;;1.15;0.98;;;16.50;99.90;;;;;;5035647;28;20120;-75
2022/09/13 04:09:32;;;;;;;0.55;0.55;;;16.50;99.90;;;;;;5035659;28;20049;-75
2022/09/13 04:11:58;;;;;;;0.75;0.50;;;16.50;99.90;;;;;;5035748;28;20114;-75
2022/09/13 04:14:25;;;;;;;1.50;0.77;;;16.40;99.90;;;;;;5035239;28;20124;-75
2022/09/13 04:16:56;;;;;;;0.32;0.32;;;16.50;99.90;;;;;;5035626;28;20049;-75
2022/09/13 04:19:22;;;;;;;0.45;0.45;;;16.50;99.90;;;;;;5035227;28;20523;-75
2022/09/13 04:21:49;;;;;;;0.25;0.25;;;16.50;99.90;;;;;;5035222;28;20037;-75
2022/09/13 04:24:17;;;;;;;0.63;0.28;;;16.50;99.90;;;;;;5035774;28;20048;-75
2022/09/13 04:26:43;;;;;;;1.13;0.55;;;16.90;99.90;;;;;;5035424;28;20116;-75
2022/09/13 04:29:08;;;;;;;0.32;0.32;;;16.50;99.90;;;;;;5035628;28;20045;-76
2022/09/13 04:31:34;;;;;;;0.38;0.28;;;16.50;99.90;;;;;;5035859;28;20042;-75
2022/09/13 04:33:59;;;;;;;0.15;0.15;;;16.50;99.90;;;;;;5036513;28;20097;-76
2022/09/13 04:36:26;;;;;;;0.73;0.50;;;16.50;99.90;;;;;;5036441;28;20041;-75
2022/09/13 04:38:51;;;;;;;1.65;0.73;;;16.50;99.90;;;;;;5035818;28;20041;-75
2022/09/13 04:41:17;;;;;;;0.22;0.22;;;16.50;99.90;;;;;;5035996;28;20053;-75
2022/09/13 04:43:42;;;;;;;0.52;0.50;;;16.50;99.90;;;;;;5035963;28;20050;-75
2022/09/13 04:46:08;;;;;;;1.20;0.63;;;16.50;99.90;;;;;;5036301;28;20124;-75
2022/09/13 04:48:34;;;;;;;0.43;0.43;;;16.40;99.90;;;;;;5036289;28;20079;-75
2022/09/13 04:51:03;;;;;;;0.10;0.10;;;16.40;99.90;;;;;;5035832;28;20060;-75
2022/09/13 04:53:30;;;;;;;0.63;0.63;;;16.40;99.90;;;;;;5035747;28;20049;-75
2022/09/13 04:56:03;;;;;;;0.65;0.50;;;16.40;99.90;;;;;;5036131;28;20113;-75
2022/09/13 04:58:30;;;;;;;0.85;0.52;;;16.40;99.90;;;;;;5035821;28;20053;-74
2022/09/13 05:01:05;;;;;;;0.25;0.20;;;16.40;99.90;;;;;;5035206;28;20053;-75
2022/09/13 05:03:32;;;;;;;0.00;0.00;;;16.40;99.90;;;;;;5035713;28;20403;-75
2022/09/13 05:06:09;;;;;;;0.00;0.00;;;16.30;99.90;;;;;;5035464;28;20045;-75
2022/09/13 05:08:36;;;;;;;0.65;0.28;;;16.40;99.90;;;;;;5034665;28;20144;-75
2022/09/13 05:11:02;;;;;;;1.77;0.88;;;16.50;99.90;;;;;;5034977;28;20065;-74
2022/09/13 05:13:28;;;;;;;0.43;0.35;;;16.40;99.90;;;;;;5035189;28;20042;-75
2022/09/13 05:16:00;;;;;;;0.20;0.20;;;16.40;99.90;;;;;;5036606;28;20045;-75
2022/09/13 05:18:27;;;;;;;0.15;0.15;;;16.30;99.90;;;;;;5038620;28;20428;-75
2022/09/13 05:20:57;;;;;;;0.00;0.00;;;16.40;99.90;;;;;;5038762;28;20045;-75
2022/09/13 05:23:23;;;;;;;0.85;0.38;;;16.40;99.90;;;;;;5038886;28;20549;-75
2022/09/13 05:26:16;;;;;;;0.57;0.20;;;16.40;99.90;;;;;;5039068;28;20148;-75
2022/09/13 05:28:41;;;;;;;0.00;0.00;;;16.40;99.90;;;;;;5035750;28;20053;-75
2022/09/13 05:31:13;;;;;;;0.15;0.10;;;16.40;99.90;;;;;;5037636;28;20043;-75
2022/09/13 05:33:39;;;;;;;0.55;0.30;;;16.40;99.90;;;;;;5037415;28;20052;-75
2022/09/13 05:36:05;;;;;;;0.00;0.00;;;16.50;99.90;;;;;;5037392;28;20037;-75
2022/09/13 05:38:32;;;;;;;0.32;0.22;;;16.50;99.90;;;;;;5037182;28;20420;-74
2022/09/13 05:41:01;;;;;;;2.65;0.35;;;16.50;99.90;;;;;;5037132;28;20514;-75
2022/09/13 05:43:29;;;;;;;0.00;0.00;;;16.50;99.90;;;;;;5037300;28;20037;-75
2022/09/13 05:46:01;;;;;;;0.77;0.57;;;16.60;99.90;;;;;;5037542;28;20041;-75
2022/09/13 05:48:28;;;;;;;0.00;0.00;;;16.50;99.90;;;;;;5037455;28;20056;-75
2022/09/13 05:50:54;;;;;;;0.82;0.77;;;16.50;99.90;;;;;;5039518;28;20045;-75
2022/09/13 05:53:19;;;;;;;0.00;0.00;;;16.50;99.90;;;;;;5040513;28;20102;-75
2022/09/13 05:55:45;;;;;;;0.03;0.00;;;16.40;99.90;;;;;;5044407;28;20038;-75
2022/09/13 05:58:10;;;;;;;0.00;0.00;;;16.40;99.90;;;;;;5042427;28;20064;-75
2022/09/13 06:00:36;;;;;;;0.00;0.00;;;16.40;99.90;;;;;;5045864;28;20064;-74
2022/09/13 06:03:02;;;;;;;0.20;0.20;;;16.40;99.90;;;;;;5048248;28;20038;-75
2022/09/13 06:05:28;;;;;;;0.30;0.30;;;16.40;99.90;;;;;;5048289;28;20041;-74
2022/09/13 06:07:53;;;;;;;0.00;0.00;;;16.40;99.90;;;;;;5047969;28;20072;-75
2022/09/13 06:10:19;;;;;;;0.15;0.13;;;16.30;99.90;;;;;;5048867;28;20038;-75
2022/09/13 06:12:45;;;;;;;0.25;0.20;;;16.30;99.90;;;;;;5046739;28;20102;-74
2022/09/13 06:15:11;;;;;;;0.30;0.20;;;16.40;99.90;;;;;;5050426;28;20049;-76
2022/09/13 06:17:36;;;;;;;0.00;0.00;;;16.30;99.90;;;;;;5051834;28;20432;-75
2022/09/13 06:20:03;;;;;;;1.42;0.77;;;16.30;99.90;;;;;;5053065;28;20042;-75
2022/09/13 06:22:32;;;;;;;0.32;0.30;;;16.30;99.90;;;;;;5053855;28;20041;-75
2022/09/13 06:24:58;;;;;;;0.10;0.05;;;16.40;99.90;;;;;;5052725;28;20049;-75
2022/09/13 06:27:23;;;;;;;0.00;0.00;;;16.40;99.90;;;;;;5051885;28;20045;-74
2022/09/13 06:29:49;;;;;;;0.00;0.00;;;16.40;99.90;;;;;;5052630;28;20056;-75
2022/09/13 06:32:15;;;;;;;0.00;0.00;;;16.40;99.90;;;;;;5050854;28;20049;-75
2022/09/13 06:34:41;;;;;;;0.13;0.10;;;16.40;99.90;;;;;;5052264;28;20064;-75
2022/09/13 06:37:06;;;;;;;0.00;0.00;;;16.40;99.90;;;;;;5050234;28;20073;-75
2022/09/13 06:39:33;;;;;;;0.10;0.10;;;16.50;99.90;;;;;;5050749;28;20041;-75
2022/09/13 06:41:59;;;;;;;0.00;0.00;;;16.60;99.90;;;;;;5050419;28;20045;-75
2022/09/13 06:44:24;;;;;;;0.00;0.00;;;16.60;99.90;;;;;;5048301;28;20060;-75
2022/09/13 06:46:50;;;;;;;0.10;0.10;;;16.80;99.90;;;;;;5048085;28;20050;-75
2022/09/13 06:49:16;;;;;;;0.08;0.08;;;16.90;99.90;;;;;;5048445;28;20113;-76
2022/09/13 06:51:41;;;;;;;0.00;0.00;;;16.90;99.90;;;;;;5049249;28;20041;-75
2022/09/13 06:54:07;;;;;;;0.10;0.10;;;17.00;99.90;;;;;;5047384;28;20400;-75
2022/09/13 06:56:35;;;;;;;0.60;0.60;;;17.00;99.90;;;;;;5044044;28;20044;-75
2022/09/13 06:59:05;;;;;;;0.00;0.00;;;17.10;99.90;;;;;;5045053;28;20080;-76
2022/09/13 07:01:31;;;;;;;0.15;0.00;;;17.00;99.90;;;;;;5045692;28;20056;-75
2022/09/13 07:04:02;;;;;;;0.13;0.13;;;17.00;99.90;;;;;;5044180;28;20072;-75
2022/09/13 07:06:31;;;;;;;0.08;0.08;;;17.00;99.90;;;;;;5044881;28;20048;-75
2022/09/13 07:08:58;;;;;;;2.20;0.65;;;17.00;99.90;;;;;;5025411;28;20052;-76
2022/09/13 07:11:25;;;;;;;0.10;0.10;;;17.40;99.90;;;;;;5042236;28;20173;-76
2022/09/13 07:13:56;;;;;;;0.00;0.00;;;17.30;99.90;;;;;;5040855;28;20038;-76
2022/09/13 07:16:25;;;;;;;1.55;0.28;;;17.30;99.90;;;;;;5039240;28;20120;-76
2022/09/13 07:19:19;;;;;;;0.10;0.10;;;17.40;99.90;;;;;;5036657;28;20048;-76
2022/09/13 07:21:44;;;;;;;0.00;0.00;;;17.60;99.90;;;;;;5033771;28;20144;-76
2022/09/13 07:24:11;;;;;;;0.10;0.00;;;17.80;99.90;;;;;;5035606;28;20164;-76
2022/09/13 07:26:37;;;;;;;1.25;0.43;;;18.00;99.90;;;;;;5036550;28;20054;-75
2022/09/13 07:29:07;;;;;;;0.40;0.38;;;18.10;99.90;;;;;;5036431;28;20045;-76
2022/09/13 07:31:36;;;;;;;0.10;0.10;;;18.10;99.90;;;;;;5036086;28;20103;-76
2022/09/13 07:34:04;;;;;;;0.10;0.10;;;18.00;99.90;;;;;;5035939;28;20052;-75
2022/09/13 07:36:32;;;;;;;0.00;0.00;;;17.90;99.90;;;;;;5036104;28;20033;-76
2022/09/13 07:38:58;;;;;;;0.40;0.30;;;17.80;99.90;;;;;;5035548;28;20056;-76
2022/09/13 07:41:26;;;;;;;1.75;0.47;;;17.90;99.90;;;;;;5034908;28;20045;-75
2022/09/13 07:43:52;;;;;;;0.00;0.00;;;18.10;99.90;;;;;;5035112;28;20381;-75
2022/09/13 07:46:20;;;;;;;0.00;0.00;;;18.10;99.90;;;;;;5034778;28;20048;-76
2022/09/13 07:48:46;;;;;;;0.32;0.30;;;17.90;99.90;;;;;;5035049;28;20056;-75
2022/09/13 07:51:17;;;;;;;0.08;0.08;;;17.80;99.90;;;;;;5035675;28;20045;-75
2022/09/13 07:53:44;;;;;;;0.70;0.40;;;17.80;99.90;;;;;;5035183;28;20042;-75
2022/09/13 07:56:10;;;;;;;0.00;0.00;;;17.90;99.90;;;;;;5035451;28;20510;-75
2022/09/13 07:58:37;;;;;;;0.43;0.22;;;18.00;99.90;;;;;;5034901;28;20049;-75
2022/09/13 08:01:09;;;;;;;0.10;0.10;;;17.90;99.90;;;;;;5035679;28;20049;-74
2022/09/13 08:03:36;;;;;;;0.00;0.00;;;17.80;99.90;;;;;;5036232;28;20053;-75
2022/09/13 08:06:03;;;;;;;0.10;0.10;;;17.80;99.90;;;;;;5036182;28;20041;-74
2022/09/13 08:08:29;;;;;;;0.70;0.70;;;17.70;99.90;;;;;;5017531;28;20523;-74
2022/09/13 08:10:56;;;;;;;1.33;0.40;;;17.90;99.90;;;;;;5035910;28;20037;-75
2022/09/13 08:13:22;;;;;;;0.00;0.00;;;17.90;99.90;;;;;;5035376;28;20044;-75
2022/09/13 08:15:48;;;;;;;0.63;0.40;;;17.70;99.90;;;;;;5036023;28;20091;-75
2022/09/13 08:18:15;;;;;;;0.00;0.00;;;17.40;99.90;;;;;;5035708;28;20041;-75
2022/09/13 08:20:40;;;;;;;0.10;0.10;;;17.20;99.90;;;;;;5036908;28;20092;-74
2022/09/13 08:23:07;;;;;;;0.00;0.00;;;17.20;99.90;;;;;;5036421;28;20488;-75
2022/09/13 08:25:34;;;;;;;1.65;1.13;;;17.50;99.90;;;;;;5036011;28;20056;-75
2022/09/13 08:28:01;;;;;;;0.00;0.00;;;18.40;99.90;;;;;;5017052;28;20101;-75
2022/09/13 08:30:32;;;;;;;0.00;0.00;;;19.00;99.90;;;;;;5036096;28;20091;-74
2022/09/13 08:32:59;;;;;;;0.00;0.00;;;19.60;99.90;;;;;;5036076;28;20103;-76
2022/09/13 08:35:24;;;;;;;0.50;0.30;;;20.00;99.90;;;;;;5017469;28;20063;-75
2022/09/13 08:37:50;;;;;;;0.20;0.20;;;19.70;99.90;;;;;;5034404;28;20041;-75
2022/09/13 08:40:16;;;;;;;1.45;0.32;;;19.20;99.90;;;;;;5034497;28;20042;-75
2022/09/13 08:43:19;;;;;;;0.05;0.05;;;19.10;99.90;;;;;;5016185;28;20124;-74
2022/09/13 08:45:51;;;;;;;0.00;0.00;;;19.50;99.90;;;;;;5034138;28;20050;-74
2022/09/13 08:48:23;;;;;;;0.00;0.00;;;19.60;99.90;;;;;;5034937;28;20038;-74
2022/09/13 08:50:56;;;;;;;7.82;0.98;;;19.80;99.90;;;;;;5001775;28;20093;-74
2022/09/13 08:53:29;;;;;;;0.32;0.20;;;19.50;99.90;;;;;;5016960;28;20053;-73
2022/09/13 08:56:22;;;;;;;0.00;0.00;;;19.50;99.90;;;;;;5034881;28;20069;-74
2022/09/13 08:59:05;;;;;;;0.90;0.40;;;20.50;99.90;;;;;;5034988;28;20053;-74
2022/09/13 09:01:34;;;;;;;0.00;0.00;;;21.20;99.90;;;;;;5034406;28;20049;-74
2022/09/13 09:04:12;;;;;;;0.00;0.00;;;21.00;99.90;;;;;;5034913;28;20049;-75
2022/09/13 09:06:38;;;;;;;0.95;0.65;;;20.30;99.90;;;;;;5034853;28;20120;-74
2022/09/13 09:09:06;;;;;;;1.00;0.47;;;20.30;99.90;;;;;;5035038;28;20069;-75
2022/09/13 09:11:49;;;;;;;0.00;0.00;;;20.10;99.90;;;;;;5035488;28;20117;-74
2022/09/13 09:14:27;;;;;;;0.00;0.00;;;20.60;99.90;;;;;;5035919;28;20545;-74
2022/09/13 09:17:03;;;;;;;0.00;0.00;;;21.30;99.90;;;;;;5034828;28;20488;-74
2022/09/13 09:20:24;;;;;;;3.17;0.43;;;22.10;99.90;;;;;;5034460;28;20053;-75
2022/09/13 09:22:51;;;;;;;0.08;0.08;;;22.80;99.90;;;;;;4954241;29;20537;-74
2022/09/13 09:25:19;;;;;;;0.10;0.10;;;23.30;99.90;;;;;;5030130;28;20128;-75
2022/09/13 09:27:45;;;;;;;0.00;0.00;;;22.60;99.90;;;;;;5034547;28;20049;-74
2022/09/13 09:30:15;;;;;;;0.00;0.00;;;22.50;99.90;;;;;;5035062;28;20496;-74
2022/09/13 09:32:47;;;;;;;0.22;0.20;;;22.80;99.90;;;;;;5034642;28;20423;-74
2022/09/13 09:35:37;;;;;;;8.68;0.65;;;22.80;99.90;;;;;;5033875;28;20492;-74
2022/09/13 09:38:24;;;;;;;0.00;0.00;;;23.00;97.50;;;;;;5034008;28;20041;-75
2022/09/13 09:40:51;;;;;;;0.00;0.00;;;22.60;99.90;;;;;;5034640;28;20085;-74
2022/09/13 09:43:23;;;;;;;0.00;0.00;;;22.80;99.90;;;;;;5034282;28;20444;-73
2022/09/13 09:45:52;;;;;;;0.00;0.00;;;22.00;99.90;;;;;;5034308;28;20490;-75
2022/09/13 09:48:23;;;;;;;1.20;0.28;;;21.80;99.90;;;;;;5034326;28;20471;-75
2022/09/13 09:50:51;;;;;;;0.00;0.00;;;21.70;98.10;;;;;;5034949;28;20077;-74
2022/09/13 09:53:23;;;;;;;0.00;0.00;;;21.60;99.30;;;;;;5033485;28;20095;-75
2022/09/13 09:55:57;;;;;;;0.00;0.00;;;21.20;99.90;;;;;;5034065;28;20045;-75
2022/09/13 09:58:38;;;;;;;0.17;0.13;;;21.10;96.10;;;;;;5033626;28;20052;-74
2022/09/13 10:01:05;;;;;;;0.05;0.05;;;20.80;99.90;;;;;;5033515;28;20049;-75
2022/09/13 10:03:33;;;;;;;0.00;0.00;;;20.40;99.90;;;;;;5036373;28;20041;-74
2022/09/13 10:06:09;;;;;;;0.20;0.20;;;20.20;99.90;;;;;;5037988;28;20526;-74
2022/09/13 10:08:38;;;;;;;0.08;0.08;;;20.40;99.90;;;;;;5037932;28;20076;-74
2022/09/13 10:11:05;;;;;;;0.00;0.00;;;20.70;99.90;;;;;;5037673;28;20042;-74
2022/09/13 10:13:31;;;;;;;0.00;0.00;;;21.20;99.90;;;;;;5037489;28;20041;-74
2022/09/13 10:16:00;;;;;;;0.00;0.00;;;21.40;99.90;;;;;;5037388;28;20046;-74
2022/09/13 10:18:30;;;;;;;0.10;0.10;;;21.90;99.50;;;;;;5036688;28;20048;-74
2022/09/13 10:21:06;;;;;;;0.00;0.00;;;21.90;97.30;;;;;;5037224;28;20041;-75
2022/09/13 10:23:34;;;;;;;0.00;0.00;;;21.50;96.60;;;;;;5037589;28;20488;-75
2022/09/13 10:26:08;;;;;;;0.00;0.00;;;21.10;98.30;;;;;;5036863;28;20048;-75
2022/09/13 10:29:09;;;;;;;0.00;0.00;;;21.00;95.80;;;;;;5036819;28;20080;-75
2022/09/13 10:31:37;;;;;;;0.70;0.47;;;21.20;93.20;;;;;;5036845;28;20087;-74
2022/09/13 10:34:28;;;;;;;0.00;0.00;;;21.60;95.10;;;;;;5037286;28;20048;-75
2022/09/13 10:37:13;;;;;;;0.00;0.00;;;22.20;89.70;;;;;;5027302;28;20053;-74
2022/09/13 10:40:02;;;;;;;0.00;0.00;;;22.50;64.70;;;;;;5035814;28;20052;-74
2022/09/13 10:42:29;;;;;;;0.00;0.00;;;22.50;88.60;;;;;;5036468;28;20080;-74
2022/09/13 10:45:01;;;;;;;0.10;0.10;;;22.60;87.20;;;;;;5036166;28;20064;-74
2022/09/13 10:47:32;;;;;;;0.25;0.17;;;22.80;78.70;;;;;;5035946;28;20045;-74
2022/09/13 10:50:12;;;;;;;0.00;0.00;;;22.90;93.60;;;;;;5035586;28;20423;-74
2022/09/13 10:52:46;;;;;;;0.57;0.40;;;23.20;97.00;;;;;;5017640;28;20556;-74
2022/09/13 10:55:33;;;;;;;1.50;0.80;;;23.60;74.90;;;;;;5035770;28;20086;-74
2022/09/13 10:58:02;;;;;;;0.00;0.00;;;23.40;67.00;;;;;;5035472;28;20090;-74
2022/09/13 11:01:00;;;;;;;0.00;0.00;;;23.10;75.40;;;;;;5035096;28;20049;-74
2022/09/13 11:03:32;;;;;;;0.05;0.05;;;22.80;92.10;;;;;;5035470;28;20041;-74
2022/09/13 11:06:16;;;;;;;0.00;0.00;;;22.30;96.20;;;;;;5036012;28;20042;-74
2022/09/13 11:09:17;;;;;;;0.15;0.15;;;22.00;93.40;;;;;;5035437;28;20443;-74
2022/09/13 11:11:58;;;;;;;0.70;0.13;;;21.80;99.90;;;;;;4965942;28;20074;-75
2022/09/13 11:14:49;;;;;;;1.65;0.57;;;22.20;90.40;;;;;;5036083;28;20053;-74
2022/09/13 11:17:40;;;;;;;0.00;0.00;;;22.70;92.80;;;;;;5037156;28;20042;-74
2022/09/13 11:20:23;;;;;;;0.10;0.10;;;23.60;71.60;;;;;;5036931;28;20045;-75
2022/09/13 11:22:55;;;;;;;0.22;0.22;;;23.90;61.80;;;;;;5035529;28;20495;-75
2022/09/13 11:25:36;;;;;;;0.30;0.20;;;22.80;58.50;;;;;;5036275;28;20049;-75
2022/09/13 11:28:04;;;;;;;0.00;0.00;;;22.90;52.40;;;;;;5037253;28;20083;-75
2022/09/13 11:30:59;;;;;;;0.25;0.15;;;23.40;71.60;;;;;;5036555;28;20052;-75
2022/09/13 11:34:14;;;;;;;0.00;0.00;;;24.20;42.50;;;;;;5027786;28;20049;-74
2022/09/13 11:36:48;;;;;;;0.25;0.25;;;24.80;28.30;;;;;;4955689;29;20058;-75
2022/09/13 11:39:35;;;;;;;0.00;0.00;;;25.20;15.50;;;;;;4957934;29;20130;-75
2022/09/13 11:42:10;;;;;;;0.00;0.00;;;25.70;28.90;;;;;;5014884;28;20090;-75
2022/09/13 11:44:58;;;;;;;0.13;0.10;;;25.90;13.00;;;;;;5035563;28;20075;-75
2022/09/13 11:47:49;;;;;;;0.05;0.05;;;24.80;9.80;;;;;;5035162;28;20134;-74
2022/09/13 11:50:37;;;;;;;0.47;0.15;;;24.20;16.70;;;;;;5034634;28;20056;-74
2022/09/13 11:53:17;;;;;;;7.72;0.60;;;24.40;18.50;;;;;;5035030;28;20041;-74
2022/09/13 11:55:54;;;;;;;0.45;0.25;;;24.80;11.70;;;;;;5034932;28;20052;-75
2022/09/13 11:58:44;;;;;;;1.98;0.63;;;25.00;19.50;;;;;;5034721;28;20049;-75
2022/09/13 12:01:12;;;;;;;0.25;0.15;;;25.10;5.60;;;;;;5034925;28;20041;-74
2022/09/13 12:03:49;;;;;;;0.50;0.20;;;25.10;7.40;;;;;;5035194;28;20060;-74
2022/09/13 12:06:22;;;;;;;0.00;0.00;;;25.30;3.50;;;;;;5034699;28;20041;-74
2022/09/13 12:08:58;;;;;;;0.55;0.25;;;24.60;10.80;;;;;;5034189;28;20054;-75
2022/09/13 12:11:38;;;;;;;0.15;0.13;;;24.50;15.00;;;;;;5034372;28;20091;-74
2022/09/13 12:14:11;;;;;;;0.00;0.00;;;24.40;18.00;;;;;;5034571;28;20552;-74
2022/09/13 12:16:44;;;;;;;0.00;0.00;;;24.50;23.60;;;;;;5034969;28;20041;-75
2022/09/13 12:19:24;;;;;;;0.00;0.00;;;24.80;11.50;;;;;;5034230;28;20084;-74
2022/09/13 12:21:52;;;;;;;0.55;0.30;;;24.80;16.90;;;;;;5034359;28;20045;-75
2022/09/13 12:24:45;;;;;;;1.15;0.22;;;25.30;6.10;;;;;;5034075;28;20057;-74
2022/09/13 12:27:26;;;;;;;0.45;0.20;;;25.40;11.50;;;;;;5034162;28;20044;-75
2022/09/13 12:29:56;;;;;;;2.42;0.38;;;24.70;14.10;;;;;;5034010;28;20068;-74
2022/09/13 12:32:22;;;;;;;0.32;0.28;;;24.00;16.50;;;;;;5034251;28;20049;-74
2022/09/13 12:35:29;;;;;;;0.00;0.00;;;23.80;19.50;;;;;;5034205;28;20041;-74
2022/09/13 12:38:24;;;;;;;0.43;0.43;;;24.00;23.40;;;;;;5029699;28;20053;-76
2022/09/13 12:41:42;;;;;;;0.30;0.20;;;24.60;12.70;;;;;;5033275;28;20128;-74
2022/09/13 12:44:30;;;;;;;1.17;0.47;;;25.00;18.20;;;;;;5010686;28;20133;-74
2022/09/13 12:47:38;;;;;;;0.47;0.32;;;25.10;8.40;;;;;;5033466;28;20044;-75
2022/09/13 12:50:25;;;;;;;0.00;0.00;;;24.50;12.80;;;;;;5023189;28;20063;-74
2022/09/13 12:53:28;;;;;;;0.22;0.13;;;23.90;20.60;;;;;;5033495;28;20045;-75
2022/09/13 12:56:10;;;;;;;4.30;1.23;;;24.10;16.60;;;;;;5033646;28;20377;-74
2022/09/13 12:59:17;;;;;;;0.00;0.00;;;24.40;20.70;;;;;;5033901;28;20132;-75
2022/09/13 13:01:49;;;;;;;0.00;0.00;;;24.20;12.30;;;;;;5033504;28;20546;-75
2022/09/13 13:04:32;;;;;;;0.00;0.00;;;24.50;15.10;;;;;;5033075;28;20053;-74
2022/09/13 13:07:05;;;;;;;0.22;0.22;;;24.70;14.70;;;;;;5033300;28;20125;-74
2022/09/13 13:09:52;;;;;;;0.75;0.65;;;24.60;14.30;;;;;;5033521;28;20095;-74
2022/09/13 13:12:34;;;;;;;0.00;0.00;;;24.90;13.50;;;;;;5033960;28;20045;-74
2022/09/13 13:15:21;;;;;;;0.05;0.05;;;25.20;5.90;;;;;;5033517;28;20452;-76
2022/09/13 13:17:48;;;;;;;2.10;0.38;;;25.50;4.40;;;;;;4992127;28;20087;-74
2022/09/13 13:20:51;;;;;;;1.23;0.22;;;26.10;7.10;;;;;;5033050;28;20045;-75